createdAt,value
2022-10-06T00:01:04.414Z,45.72
2022-10-06T00:03:32.142Z,49.08
2022-10-06T00:06:01.034Z,44.67
2022-10-06T00:08:31.045Z,44.40
2022-10-06T00:10:58.666Z,45.10
2022-10-06T00:13:27.642Z,46.13
2022-10-06T00:15:55.282Z,43.15
2022-10-06T00:18:22.787Z,36.90
2022-10-06T00:21:01.483Z,48.13
2022-10-06T00:23:29.525Z,43.92
2022-10-06T00:25:57.017Z,52.13
2022-10-06T00:28:24.879Z,45.30
2022-10-06T00:30:53.674Z,41.42
2022-10-06T00:33:21.173Z,44.33
2022-10-06T00:35:58.039Z,44.58
2022-10-06T00:38:26.184Z,47.95
2022-10-06T00:40:54.041Z,48.72
2022-10-06T00:43:54.452Z,47.67
2022-10-06T00:46:46.874Z,49.38
2022-10-06T00:49:36.878Z,49.05
2022-10-06T00:52:15.079Z,45.10
2022-10-06T00:54:42.862Z,49.20
2022-10-06T00:57:10.955Z,48.78
2022-10-06T00:59:39.947Z,44.80
2022-10-06T01:02:17.977Z,46.00
2022-10-06T01:04:48.706Z,42.03
2022-10-06T01:07:19.397Z,43.83
2022-10-06T01:09:47.277Z,42.90
2022-10-06T01:12:15.466Z,42.25
2022-10-06T01:14:43.153Z,46.15
2022-10-06T01:17:16.395Z,51.47
2022-10-06T01:19:54.950Z,47.05
2022-10-06T01:22:32.940Z,47.85
2022-10-06T01:25:03.697Z,42.70
2022-10-06T01:27:33.090Z,50.45
2022-10-06T01:30:01.222Z,46.35
2022-10-06T01:32:36.071Z,52.55
2022-10-06T01:35:06.761Z,48.45
2022-10-06T01:37:34.258Z,49.97
2022-10-06T01:40:01.986Z,52.38
2022-10-06T01:42:32.991Z,48.72
2022-10-06T01:45:03.242Z,50.78
2022-10-06T01:47:30.630Z,51.75
2022-10-06T01:49:58.010Z,48.83
2022-10-06T01:52:26.374Z,47.60
2022-10-06T01:54:54.158Z,51.03
2022-10-06T01:57:22.714Z,51.28
2022-10-06T01:59:54.590Z,55.22
2022-10-06T02:02:23.913Z,60.15
2022-10-06T02:04:51.315Z,58.30
2022-10-06T02:07:19.370Z,63.45
2022-10-06T02:09:47.375Z,68.95
2022-10-06T02:12:16.490Z,60.00
2022-10-06T02:14:43.905Z,64.78
2022-10-06T02:17:11.322Z,58.58
2022-10-06T02:19:38.833Z,66.85
2022-10-06T02:22:06.233Z,56.72
2022-10-06T02:24:34.209Z,64.15
2022-10-06T02:27:01.779Z,57.42
2022-10-06T02:29:29.231Z,56.95
2022-10-06T02:31:56.892Z,69.38
2022-10-06T02:34:25.330Z,63.40
2022-10-06T02:36:54.075Z,61.45
2022-10-06T02:39:21.637Z,65.70
2022-10-06T02:41:49.102Z,63.03
2022-10-06T02:44:16.523Z,60.30
2022-10-06T02:46:45.600Z,65.15
2022-10-06T02:49:13.687Z,62.72
2022-10-06T02:51:41.234Z,67.20
2022-10-06T02:54:11.632Z,61.53
2022-10-06T02:56:39.051Z,61.70
2022-10-06T02:59:06.444Z,57.90
2022-10-06T03:01:36.149Z,58.75
2022-10-06T03:04:13.986Z,58.67
2022-10-06T03:06:42.496Z,60.03
2022-10-06T03:09:22.010Z,57.20
2022-10-06T03:11:49.914Z,49.60
2022-10-06T03:14:24.911Z,53.25
2022-10-06T03:16:52.607Z,63.50
2022-10-06T03:19:24.244Z,58.30
2022-10-06T03:21:51.881Z,65.78
2022-10-06T03:24:19.348Z,63.35
2022-10-06T03:26:50.610Z,57.75
2022-10-06T03:29:19.598Z,62.78
2022-10-06T03:31:54.182Z,65.45
2022-10-06T03:34:21.703Z,65.68
2022-10-06T03:36:49.432Z,60.17
2022-10-06T03:39:20.618Z,56.08
2022-10-06T03:41:49.869Z,56.88
2022-10-06T03:44:17.389Z,64.07
2022-10-06T03:46:45.538Z,61.72
2022-10-06T03:49:12.985Z,57.97
2022-10-06T03:51:42.052Z,58.67
2022-10-06T03:54:17.613Z,56.72
2022-10-06T03:56:47.461Z,57.22
2022-10-06T03:59:19.551Z,62.70
2022-10-06T04:01:48.843Z,68.57
2022-10-06T04:04:29.441Z,67.50
2022-10-06T04:07:07.736Z,68.45
2022-10-06T04:09:36.673Z,63.53
2022-10-06T04:12:04.247Z,72.43
2022-10-06T04:14:33.989Z,71.10
2022-10-06T04:17:01.648Z,75.63
2022-10-06T04:19:34.840Z,69.47
2022-10-06T04:22:03.409Z,74.00
2022-10-06T04:24:31.690Z,69.70
2022-10-06T04:27:19.050Z,74.13
2022-10-06T04:30:08.485Z,65.00
2022-10-06T04:32:36.625Z,71.70
2022-10-06T04:35:04.601Z,68.90
2022-10-06T04:37:32.114Z,76.10
2022-10-06T04:40:00.297Z,85.63
2022-10-06T04:42:34.719Z,64.10
2022-10-06T04:45:05.205Z,70.55
2022-10-06T04:47:33.102Z,67.95
2022-10-06T04:50:00.547Z,75.65
2022-10-06T04:52:28.020Z,61.85
2022-10-06T04:54:55.616Z,65.20
2022-10-06T04:57:22.994Z,63.78
2022-10-06T05:00:13.927Z,66.97
2022-10-06T05:02:43.263Z,67.10
2022-10-06T05:05:10.754Z,58.50
2022-10-06T05:07:38.607Z,65.38
2022-10-06T05:10:06.323Z,64.72
2022-10-06T05:12:34.190Z,75.28
2022-10-06T05:15:01.675Z,62.55
2022-10-06T05:17:29.146Z,62.92
2022-10-06T05:19:56.529Z,65.30
2022-10-06T05:22:23.980Z,99.47
2022-10-06T05:24:53.808Z,66.80
2022-10-06T05:27:21.395Z,66.88
2022-10-06T05:29:48.852Z,62.05
2022-10-06T05:32:16.278Z,68.35
2022-10-06T05:34:43.809Z,69.07
2022-10-06T05:37:11.443Z,66.90
2022-10-06T05:39:39.775Z,55.45
2022-10-06T05:42:07.246Z,50.97
2022-10-06T05:44:34.707Z,58.13
2022-10-06T05:47:07.313Z,55.70
2022-10-06T05:49:35.118Z,61.28
2022-10-06T05:52:04.582Z,53.50
2022-10-06T05:54:37.269Z,54.05
2022-10-06T05:57:06.485Z,60.00
2022-10-06T05:59:34.669Z,52.45
2022-10-06T06:02:03.679Z,52.97
2022-10-06T06:04:35.448Z,56.10
2022-10-06T06:07:03.041Z,49.88
2022-10-06T06:09:30.649Z,48.30
2022-10-06T06:12:00.224Z,46.90
2022-10-06T06:15:06.681Z,46.78
2022-10-06T06:17:41.561Z,52.35
2022-10-06T06:20:09.793Z,42.17
2022-10-06T06:22:37.947Z,50.72
2022-10-06T06:25:07.102Z,46.25
2022-10-06T06:27:35.651Z,51.65
2022-10-06T06:30:04.343Z,44.55
2022-10-06T06:32:31.987Z,39.85
2022-10-06T06:34:59.505Z,35.60
2022-10-06T06:37:31.399Z,41.13
2022-10-06T06:39:59.225Z,34.75
2022-10-06T06:42:46.655Z,35.88
2022-10-06T06:45:49.060Z,38.88
2022-10-06T06:48:37.889Z,37.10
2022-10-06T06:51:05.642Z,36.08
2022-10-06T06:53:33.512Z,37.95
2022-10-06T06:56:04.078Z,34.92
2022-10-06T06:58:33.797Z,47.05
2022-10-06T07:01:06.173Z,42.38
2022-10-06T07:03:56.175Z,43.58
2022-10-06T07:06:27.092Z,36.90
2022-10-06T07:08:58.290Z,43.58
2022-10-06T07:11:31.450Z,39.50
2022-10-06T07:14:01.706Z,45.80
2022-10-06T07:16:49.642Z,42.20
2022-10-06T07:19:37.522Z,44.15
2022-10-06T07:22:26.277Z,44.13
2022-10-06T07:25:08.469Z,39.28
2022-10-06T07:27:45.369Z,39.03
2022-10-06T07:30:22.466Z,36.28
2022-10-06T07:32:55.202Z,35.00
2022-10-06T07:35:25.592Z,41.03
2022-10-06T07:37:54.111Z,42.72
2022-10-06T07:40:23.581Z,47.50
2022-10-06T07:42:52.166Z,30.42
2022-10-06T07:45:54.518Z,32.45
2022-10-06T07:48:27.107Z,34.60
2022-10-06T07:51:00.278Z,31.30
2022-10-06T07:53:37.458Z,32.25
2022-10-06T07:56:15.791Z,32.17
2022-10-06T07:58:48.538Z,32.35
2022-10-06T08:01:18.750Z,30.27
2022-10-06T08:03:48.594Z,29.40
2022-10-06T08:06:17.213Z,31.95
2022-10-06T08:08:51.728Z,34.13
2022-10-06T08:11:20.986Z,30.27
2022-10-06T08:13:48.552Z,31.90
2022-10-06T08:16:19.686Z,28.70
2022-10-06T08:18:53.312Z,30.90
2022-10-06T08:21:25.925Z,28.80
2022-10-06T08:23:54.439Z,30.10
2022-10-06T08:26:23.537Z,36.55
2022-10-06T08:28:53.852Z,27.70
2022-10-06T08:31:22.855Z,31.60
2022-10-06T08:33:54.561Z,27.20
2022-10-06T08:36:25.915Z,27.55
2022-10-06T08:38:56.276Z,29.17
2022-10-06T08:41:41.636Z,27.17
2022-10-06T08:44:18.074Z,32.72
2022-10-06T08:46:56.883Z,28.33
2022-10-06T08:49:27.616Z,29.38
2022-10-06T08:51:54.985Z,33.58
2022-10-06T08:54:45.758Z,29.17
2022-10-06T08:57:30.839Z,35.08
2022-10-06T08:59:59.358Z,27.63
2022-10-06T09:02:30.289Z,30.73
2022-10-06T09:05:01.336Z,32.03
2022-10-06T09:08:03.280Z,35.05
2022-10-06T09:10:33.449Z,29.48
2022-10-06T09:13:12.418Z,29.05
2022-10-06T09:15:52.656Z,33.58
2022-10-06T09:19:07.757Z,30.40
2022-10-06T09:21:39.157Z,37.30
2022-10-06T09:24:17.922Z,31.08
2022-10-06T09:26:48.587Z,31.70
2022-10-06T09:29:17.469Z,35.45
2022-10-06T09:31:52.916Z,30.38
2022-10-06T09:34:48.589Z,32.72
2022-10-06T09:37:15.990Z,35.08
2022-10-06T09:39:45.930Z,33.72
2022-10-06T09:42:27.062Z,29.98
2022-10-06T09:44:58.560Z,31.40
2022-10-06T09:47:45.109Z,33.72
2022-10-06T09:50:21.828Z,29.02
2022-10-06T09:52:59.202Z,33.88
2022-10-06T09:55:31.234Z,34.85
2022-10-06T10:00:27.399Z,32.05
2022-10-06T10:03:04.497Z,35.97
2022-10-06T10:06:02.181Z,39.78
2022-10-06T10:08:32.388Z,37.05
2022-10-06T10:11:28.553Z,45.47
2022-10-06T10:13:59.643Z,45.30
2022-10-06T10:16:34.868Z,41.17
2022-10-06T10:19:05.715Z,36.38
2022-10-06T10:21:34.869Z,38.83
2022-10-06T10:24:06.219Z,43.28
2022-10-06T10:26:50.127Z,38.90
2022-10-06T10:29:45.653Z,37.60
2022-10-06T10:32:18.481Z,35.05
2022-10-06T10:35:18.464Z,34.63
2022-10-06T10:38:00.839Z,41.30
2022-10-06T10:40:35.521Z,35.88
2022-10-06T10:43:27.806Z,35.25
2022-10-06T10:46:04.224Z,36.40
2022-10-06T10:48:43.774Z,35.75
2022-10-06T10:51:32.270Z,36.30
2022-10-06T10:54:05.951Z,33.28
2022-10-06T10:56:34.107Z,39.38
2022-10-06T10:59:15.366Z,39.97
2022-10-06T11:01:55.736Z,40.35
2022-10-06T11:04:23.202Z,39.85
2022-10-06T11:07:19.590Z,37.88
2022-10-06T11:09:56.074Z,41.95
2022-10-06T11:12:45.923Z,42.45
2022-10-06T11:15:25.623Z,41.75
2022-10-06T11:17:59.198Z,40.88
2022-10-06T11:20:47.798Z,40.97
2022-10-06T11:23:37.024Z,45.40
2022-10-06T11:26:25.010Z,40.53
2022-10-06T11:29:24.624Z,42.25
2022-10-06T11:32:14.946Z,43.75
2022-10-06T11:34:44.877Z,44.35
2022-10-06T11:37:19.029Z,41.05
2022-10-06T11:40:24.411Z,46.55
2022-10-06T11:43:00.912Z,39.42
2022-10-06T11:45:52.633Z,45.20
2022-10-06T11:48:31.026Z,45.35
2022-10-06T11:51:24.940Z,41.00
2022-10-06T11:53:54.431Z,47.30
2022-10-06T11:56:21.746Z,45.55
2022-10-06T11:59:10.937Z,45.10
2022-10-06T12:01:50.103Z,42.92
2022-10-06T12:04:23.411Z,49.30
2022-10-06T12:06:56.918Z,42.10
2022-10-06T12:09:24.723Z,41.30
2022-10-06T12:11:54.227Z,41.55
2022-10-06T12:17:54.137Z,48.63
2022-10-06T12:20:39.978Z,46.67
2022-10-06T12:23:10.281Z,45.58
2022-10-06T12:25:49.307Z,40.42
2022-10-06T12:28:33.241Z,43.78
2022-10-06T12:31:24.506Z,45.28
2022-10-06T12:33:52.853Z,42.08
2022-10-06T12:36:31.855Z,46.97
2022-10-06T12:39:20.889Z,43.88
2022-10-06T12:42:01.957Z,45.88
2022-10-06T12:44:42.882Z,44.33
2022-10-06T12:47:23.684Z,40.63
2022-10-06T12:50:01.865Z,43.35
2022-10-06T12:52:32.227Z,45.33
2022-10-06T12:55:21.357Z,42.97
2022-10-06T12:57:53.487Z,43.17
2022-10-06T13:00:43.460Z,47.13
2022-10-06T13:03:24.156Z,44.13
2022-10-06T13:06:03.315Z,47.83
2022-10-06T13:08:35.984Z,42.33
2022-10-06T13:11:25.074Z,43.53
2022-10-06T13:13:58.710Z,44.58
2022-10-06T13:16:32.312Z,49.80
2022-10-06T13:19:01.217Z,45.08
2022-10-06T13:21:30.377Z,49.03
2022-10-06T13:23:57.930Z,47.25
2022-10-06T13:26:29.482Z,42.05
2022-10-06T13:28:58.954Z,41.40
2022-10-06T13:31:30.498Z,43.03
2022-10-06T13:34:05.107Z,45.45
2022-10-06T13:36:38.760Z,43.40
2022-10-06T13:39:15.032Z,44.85
2022-10-06T13:41:49.144Z,45.80
2022-10-06T13:44:26.405Z,45.47
2022-10-06T13:46:58.164Z,42.85
2022-10-06T13:49:29.819Z,44.80
2022-10-06T13:52:08.779Z,44.45
2022-10-06T13:54:54.538Z,48.30
2022-10-06T13:57:51.598Z,49.22
2022-10-06T14:00:25.081Z,43.00
2022-10-06T14:03:04.899Z,47.72
2022-10-06T14:05:43.610Z,43.55
2022-10-06T14:08:10.983Z,45.15
2022-10-06T14:10:38.268Z,45.90
2022-10-06T14:13:16.062Z,42.88
2022-10-06T14:15:53.148Z,48.88
2022-10-06T14:18:39.331Z,37.05
2022-10-06T14:21:31.680Z,45.72
2022-10-06T14:24:04.752Z,42.85
2022-10-06T14:26:35.055Z,39.33
2022-10-06T14:29:02.448Z,45.22
2022-10-06T14:31:31.859Z,49.10
2022-10-06T14:33:59.810Z,39.00
2022-10-06T14:36:36.254Z,38.65
2022-10-06T14:39:06.146Z,58.25
2022-10-06T14:41:33.938Z,46.40
2022-10-06T14:44:05.979Z,44.03
2022-10-06T14:46:33.550Z,40.85
2022-10-06T14:49:03.189Z,42.90
2022-10-06T14:51:33.209Z,41.20
2022-10-06T14:54:03.442Z,41.33
2022-10-06T14:56:32.690Z,44.42
2022-10-06T14:59:01.977Z,47.20
2022-10-06T15:01:29.850Z,42.08
2022-10-06T15:04:09.344Z,41.50
2022-10-06T15:06:55.573Z,38.97
2022-10-06T15:09:23.869Z,39.88
2022-10-06T15:11:52.135Z,39.10
2022-10-06T15:14:19.837Z,36.10
2022-10-06T15:16:47.596Z,31.17
2022-10-06T15:19:15.253Z,31.88
2022-10-06T15:21:46.556Z,34.13
2022-10-06T15:24:16.442Z,34.23
2022-10-06T15:27:03.130Z,35.47
2022-10-06T15:29:37.831Z,42.70
2022-10-06T15:32:06.617Z,38.97
2022-10-06T15:34:36.931Z,30.38
2022-10-06T15:37:05.177Z,30.27
2022-10-06T15:39:36.455Z,31.30
2022-10-06T15:42:04.256Z,30.65
2022-10-06T15:44:34.222Z,30.90
2022-10-06T15:47:04.336Z,34.22
2022-10-06T15:49:33.015Z,32.75
2022-10-06T15:52:03.241Z,31.90
2022-10-06T15:54:38.636Z,35.58
2022-10-06T15:57:08.796Z,34.78
2022-10-06T15:59:36.971Z,43.33
2022-10-06T16:02:16.108Z,34.72
2022-10-06T16:04:44.749Z,32.88
2022-10-06T16:07:17.948Z,33.72
2022-10-06T16:09:50.857Z,32.08
2022-10-06T16:12:21.426Z,32.00
2022-10-06T16:14:49.664Z,35.43
2022-10-06T16:17:18.177Z,28.15
2022-10-06T16:19:46.934Z,26.85
2022-10-06T16:22:19.242Z,31.13
2022-10-06T16:27:15.418Z,34.13
2022-10-06T16:29:42.867Z,28.38
2022-10-06T16:32:10.827Z,31.60
2022-10-06T16:34:38.252Z,28.35
2022-10-06T16:37:05.611Z,32.85
2022-10-06T16:39:32.969Z,26.30
2022-10-06T16:42:00.354Z,29.35
2022-10-06T16:44:27.746Z,27.50
2022-10-06T16:46:55.247Z,27.92
2022-10-06T16:49:24.370Z,31.95
2022-10-06T16:51:51.755Z,28.13
2022-10-06T16:54:19.144Z,26.80
2022-10-06T16:56:48.834Z,29.38
2022-10-06T16:59:18.195Z,29.50
2022-10-06T17:01:46.842Z,29.30
2022-10-06T17:04:19.543Z,26.05
2022-10-06T17:06:54.965Z,32.28
2022-10-06T17:09:27.933Z,34.05
2022-10-06T17:12:03.336Z,27.10
2022-10-06T17:14:32.531Z,30.98
2022-10-06T17:17:00.532Z,27.55
2022-10-06T17:19:30.023Z,30.45
2022-10-06T17:21:59.945Z,24.42
2022-10-06T17:24:29.172Z,31.55
2022-10-06T17:26:57.778Z,30.05
2022-10-06T17:29:26.002Z,32.10
2022-10-06T17:31:59.058Z,28.98
2022-10-06T17:34:31.769Z,34.28
2022-10-06T17:37:01.862Z,27.92
2022-10-06T17:39:31.145Z,30.85
2022-10-06T17:41:58.654Z,26.95
2022-10-06T17:44:27.858Z,25.90
2022-10-06T17:46:57.538Z,32.17
2022-10-06T17:49:25.656Z,28.92
2022-10-06T17:51:54.387Z,30.17
2022-10-06T17:54:23.777Z,31.80
2022-10-06T17:56:54.740Z,32.38
2022-10-06T17:59:30.814Z,34.80
2022-10-06T18:02:00.937Z,30.10
2022-10-06T18:04:29.503Z,42.42
2022-10-06T18:06:57.070Z,33.20
2022-10-06T18:09:24.659Z,42.90
2022-10-06T18:11:56.627Z,36.83
2022-10-06T18:14:26.862Z,32.95
2022-10-06T18:16:58.755Z,37.25
2022-10-06T18:19:32.283Z,39.45
2022-10-06T18:22:10.000Z,43.38
2022-10-06T18:24:38.325Z,41.28
2022-10-06T18:27:06.631Z,38.70
2022-10-06T18:29:36.919Z,40.40
2022-10-06T18:37:42.598Z,40.47
2022-10-06T18:40:11.280Z,47.17
2022-10-06T18:42:39.919Z,43.17
2022-10-06T18:45:27.418Z,41.63
2022-10-06T18:48:20.807Z,56.88
2022-10-06T18:51:02.040Z,50.08
2022-10-06T18:53:32.628Z,48.83
2022-10-06T18:56:00.016Z,48.22
2022-10-06T18:58:27.403Z,53.90
2022-10-06T19:00:56.002Z,56.15
2022-10-06T19:03:23.476Z,59.50
2022-10-06T19:05:52.649Z,60.00
2022-10-06T19:08:20.029Z,59.03
2022-10-06T19:11:07.355Z,56.83
2022-10-06T19:13:34.764Z,59.15
2022-10-06T19:16:02.684Z,56.20
2022-10-06T19:18:37.924Z,60.65
2022-10-06T19:21:09.527Z,57.55
2022-10-06T19:23:38.486Z,53.80
2022-10-06T19:26:08.743Z,53.80
2022-10-06T19:28:37.723Z,54.13
2022-10-06T19:31:11.254Z,56.65
2022-10-06T19:33:39.520Z,54.58
2022-10-06T19:36:08.932Z,55.28
2022-10-06T19:38:38.686Z,55.67
2022-10-06T19:41:25.032Z,55.60
2022-10-06T19:43:52.712Z,52.88
2022-10-06T19:46:20.839Z,52.00
2022-10-06T19:48:52.946Z,56.00
2022-10-06T19:51:21.300Z,52.05
2022-10-06T19:53:51.231Z,58.38
2022-10-06T19:56:20.534Z,49.53
2022-10-06T19:58:49.772Z,54.63
2022-10-06T20:01:17.384Z,51.95
2022-10-06T20:03:45.068Z,54.08
2022-10-06T20:06:14.311Z,54.88
2022-10-06T20:08:42.701Z,52.63
2022-10-06T20:11:16.261Z,49.33
2022-10-06T20:13:44.601Z,57.22
2022-10-06T20:16:17.256Z,49.72
2022-10-06T20:18:46.906Z,54.42
2022-10-06T20:21:24.627Z,47.05
2022-10-06T20:23:55.444Z,55.88
2022-10-06T20:26:34.134Z,53.05
2022-10-06T20:29:03.906Z,49.65
2022-10-06T20:31:34.226Z,49.40
2022-10-06T20:34:03.919Z,47.25
2022-10-06T20:36:32.957Z,51.85
2022-10-06T20:39:20.190Z,50.50
2022-10-06T20:41:48.366Z,49.50
2022-10-06T20:44:16.020Z,52.17
2022-10-06T20:46:43.365Z,50.22
2022-10-06T20:49:13.990Z,48.40
2022-10-06T20:51:46.475Z,47.45
2022-10-06T20:54:16.101Z,47.90
2022-10-06T20:56:43.714Z,45.92
2022-10-06T20:59:12.442Z,50.63
2022-10-06T21:01:40.892Z,48.95
2022-10-06T21:04:09.244Z,48.45
2022-10-06T21:06:40.632Z,52.50
2022-10-06T21:09:11.757Z,52.15
2022-10-06T21:11:39.393Z,53.35
2022-10-06T21:14:11.701Z,46.83
2022-10-06T21:19:14.507Z,51.08
2022-10-06T21:21:43.405Z,49.60
2022-10-06T21:24:10.740Z,45.55
2022-10-06T21:26:39.004Z,47.75
2022-10-06T21:29:07.279Z,48.92
2022-10-06T21:31:34.724Z,48.20
2022-10-06T21:34:02.486Z,57.97
2022-10-06T21:36:32.932Z,46.03
2022-10-06T21:39:01.701Z,46.92
2022-10-06T21:41:32.101Z,46.90
2022-10-06T21:44:08.061Z,51.35
2022-10-06T21:46:40.813Z,49.05
2022-10-06T21:49:13.244Z,50.22
2022-10-06T21:54:10.458Z,50.45
2022-10-06T21:56:39.028Z,45.70
2022-10-06T21:59:07.129Z,50.60
2022-10-06T22:01:37.283Z,47.42
2022-10-06T22:04:05.068Z,50.47
2022-10-06T22:06:34.648Z,54.83
2022-10-06T22:09:04.076Z,49.42
2022-10-06T22:11:35.161Z,49.47
2022-10-06T22:14:04.778Z,51.08
2022-10-06T22:16:34.037Z,52.55
2022-10-06T22:19:04.476Z,65.28
2022-10-06T22:21:34.295Z,50.10
2022-10-06T22:24:07.393Z,50.35
2022-10-06T22:26:37.483Z,50.22
2022-10-06T22:29:08.568Z,55.72
2022-10-06T22:31:38.531Z,57.88
2022-10-06T22:34:07.437Z,55.55
2022-10-06T22:36:35.467Z,47.83
2022-10-06T22:39:02.967Z,56.60
2022-10-06T22:41:30.419Z,49.85
2022-10-06T22:43:59.411Z,48.75
2022-10-06T22:46:32.221Z,54.03
2022-10-06T22:48:59.824Z,52.67
2022-10-06T22:51:27.238Z,49.58
2022-10-06T22:54:00.057Z,49.88
2022-10-06T22:56:29.018Z,51.58
2022-10-06T22:58:59.720Z,56.58
2022-10-06T23:01:29.051Z,59.60
2022-10-06T23:03:57.087Z,53.85
2022-10-06T23:06:24.751Z,55.17
2022-10-06T23:08:52.447Z,57.30
2022-10-06T23:11:21.419Z,52.35
2022-10-06T23:13:50.506Z,49.92
2022-10-06T23:16:19.445Z,53.95
2022-10-06T23:18:48.846Z,55.00
2022-10-06T23:21:21.628Z,51.50
2022-10-06T23:23:51.808Z,60.08
2022-10-06T23:26:20.235Z,52.90
2022-10-06T23:28:55.937Z,59.92
2022-10-06T23:31:24.167Z,51.92
2022-10-06T23:33:51.616Z,52.40
2022-10-06T23:36:19.217Z,57.75
2022-10-06T23:38:47.116Z,52.38
2022-10-06T23:41:14.959Z,48.67
2022-10-06T23:43:42.401Z,46.50
2022-10-06T23:46:10.166Z,48.78
2022-10-06T23:48:37.685Z,44.65
2022-10-06T23:51:07.748Z,47.38
2022-10-06T23:53:35.793Z,48.03
2022-10-06T23:56:03.777Z,48.20
2022-10-06T23:58:31.468Z,45.40
